createdAt,value
2022-10-07T00:00:40.471Z,0.00
2022-10-07T00:01:42.787Z,0.00
2022-10-07T00:02:41.099Z,0.00
2022-10-07T00:03:44.339Z,0.00
2022-10-07T00:04:41.626Z,0.00
2022-10-07T00:05:43.887Z,0.00
2022-10-07T00:06:42.124Z,0.00
2022-10-07T00:07:44.635Z,0.00
2022-10-07T00:08:44.778Z,0.00
2022-10-07T00:09:43.006Z,0.00
2022-10-07T00:10:43.298Z,0.00
2022-10-07T00:11:43.576Z,0.00
2022-10-07T00:12:45.840Z,0.00
2022-10-07T00:13:45.045Z,0.00
2022-10-07T00:14:44.360Z,0.00
2022-10-07T00:15:46.619Z,0.00
2022-10-07T00:16:45.051Z,0.00
2022-10-07T00:17:45.416Z,0.00
2022-10-07T00:18:48.494Z,0.00
2022-10-07T00:19:45.751Z,0.00
2022-10-07T00:20:47.993Z,0.00
2022-10-07T00:21:46.354Z,0.00
2022-10-07T00:22:46.642Z,0.00
2022-10-07T00:23:47.176Z,0.00
2022-10-07T00:24:47.267Z,0.00
2022-10-07T00:25:49.510Z,0.00
2022-10-07T00:26:47.971Z,0.00
2022-10-07T00:27:50.254Z,0.00
2022-10-07T00:28:50.589Z,0.00
2022-10-07T00:29:48.834Z,0.00
2022-10-07T00:30:51.126Z,0.00
2022-10-07T00:31:53.550Z,0.00
2022-10-07T00:32:50.685Z,0.00
2022-10-07T00:33:49.910Z,0.00
2022-10-07T00:34:50.179Z,0.00
2022-10-07T00:35:50.357Z,0.00
2022-10-07T00:36:52.611Z,0.00
2022-10-07T00:37:54.321Z,0.00
2022-10-07T00:38:54.007Z,0.00
2022-10-07T00:39:54.696Z,0.00
2022-10-07T00:40:52.644Z,0.00
2022-10-07T00:41:54.593Z,0.00
2022-10-07T00:42:55.286Z,0.00
2022-10-07T00:43:54.516Z,0.00
2022-10-07T00:44:54.053Z,0.00
2022-10-07T00:45:54.233Z,0.00
2022-10-07T00:46:53.714Z,0.00
2022-10-07T00:47:55.896Z,0.00
2022-10-07T00:48:54.284Z,0.00
2022-10-07T00:49:57.447Z,0.00
2022-10-07T00:50:54.830Z,0.00
2022-10-07T00:51:57.006Z,0.00
2022-10-07T00:52:56.356Z,0.00
2022-10-07T00:53:56.514Z,0.00
2022-10-07T00:54:56.018Z,0.00
2022-10-07T00:55:58.207Z,0.00
2022-10-07T00:56:58.398Z,0.00
2022-10-07T00:57:58.574Z,0.00
2022-10-07T00:58:58.760Z,0.00
2022-10-07T00:59:57.514Z,0.00
2022-10-07T01:00:57.870Z,0.00
2022-10-07T01:01:58.242Z,0.00
2022-10-07T01:03:01.820Z,0.00
2022-10-07T01:04:00.557Z,0.00
2022-10-07T01:05:02.193Z,0.00
2022-10-07T01:05:59.372Z,0.00
2022-10-07T01:06:59.686Z,0.00
2022-10-07T01:08:03.321Z,0.00
2022-10-07T01:09:02.053Z,0.00
2022-10-07T01:10:02.235Z,0.00
2022-10-07T01:11:01.915Z,0.00
2022-10-07T01:12:03.081Z,0.00
2022-10-07T01:13:04.298Z,0.00
2022-10-07T01:14:03.490Z,0.00
2022-10-07T01:15:03.681Z,0.00
2022-10-07T01:16:02.459Z,0.00
2022-10-07T01:17:02.882Z,0.00
2022-10-07T01:18:06.441Z,0.00
2022-10-07T01:19:05.188Z,0.00
2022-10-07T01:20:05.369Z,0.00
2022-10-07T01:21:05.572Z,0.00
2022-10-07T01:22:07.768Z,0.00
2022-10-07T01:23:05.514Z,0.00
2022-10-07T01:24:06.740Z,0.00
2022-10-07T01:25:06.997Z,0.00
2022-10-07T01:26:05.369Z,0.00
2022-10-07T01:27:08.504Z,0.00
2022-10-07T01:28:06.857Z,0.00
2022-10-07T01:29:06.220Z,0.00
2022-10-07T01:30:06.538Z,0.00
2022-10-07T01:31:06.994Z,0.00
2022-10-07T01:32:09.019Z,0.00
2022-10-07T01:33:08.394Z,0.00
2022-10-07T01:34:09.627Z,0.00
2022-10-07T01:35:08.010Z,0.00
2022-10-07T01:36:08.326Z,0.00
2022-10-07T01:37:10.504Z,0.00
2022-10-07T01:38:09.704Z,0.00
2022-10-07T01:39:11.112Z,0.00
2022-10-07T01:40:09.501Z,0.00
2022-10-07T01:41:09.819Z,0.00
2022-10-07T01:42:10.092Z,0.00
2022-10-07T01:43:11.398Z,0.00
2022-10-07T01:44:12.614Z,0.00
2022-10-07T01:45:10.880Z,0.00
2022-10-07T01:46:11.240Z,0.00
2022-10-07T01:47:11.511Z,0.00
2022-10-07T01:48:15.191Z,0.00
2022-10-07T01:49:13.928Z,0.00
2022-10-07T01:50:12.313Z,0.00
2022-10-07T01:51:12.659Z,0.00
2022-10-07T01:52:12.976Z,0.00
2022-10-07T01:53:15.203Z,0.00
2022-10-07T01:54:13.592Z,0.00
2022-10-07T01:55:13.909Z,0.00
2022-10-07T01:56:14.223Z,0.00
2022-10-07T01:57:14.532Z,0.00
2022-10-07T01:58:17.900Z,0.00
2022-10-07T01:59:17.048Z,0.00
2022-10-07T02:00:15.299Z,0.00
2022-10-07T02:01:17.544Z,0.00
2022-10-07T02:02:17.677Z,0.00
2022-10-07T02:03:17.193Z,0.00
2022-10-07T02:04:16.546Z,0.00
2022-10-07T02:05:16.854Z,0.00
2022-10-07T02:06:17.205Z,0.00
2022-10-07T02:07:19.359Z,0.00
2022-10-07T02:08:20.526Z,0.00
2022-10-07T02:09:18.058Z,0.00
2022-10-07T02:10:18.361Z,0.00
2022-10-07T02:11:18.672Z,0.00
2022-10-07T02:12:20.853Z,0.00
2022-10-07T02:13:22.044Z,0.00
2022-10-07T02:14:19.565Z,0.00
2022-10-07T02:15:19.894Z,0.00
2022-10-07T02:16:20.252Z,0.00
2022-10-07T02:17:20.439Z,0.00
2022-10-07T02:18:21.871Z,0.00
2022-10-07T02:19:21.003Z,0.00
2022-10-07T02:20:21.300Z,0.00
2022-10-07T02:21:21.619Z,0.00
2022-10-07T02:22:21.903Z,0.00
2022-10-07T02:23:25.594Z,0.00
2022-10-07T02:24:22.505Z,0.00
2022-10-07T02:25:22.820Z,0.00
2022-10-07T02:26:23.125Z,0.00
2022-10-07T02:27:26.257Z,0.00
2022-10-07T02:28:24.788Z,0.00
2022-10-07T02:29:25.974Z,0.00
2022-10-07T02:30:24.224Z,0.00
2022-10-07T02:31:26.505Z,0.00
2022-10-07T02:32:24.761Z,0.00
2022-10-07T02:33:26.045Z,0.00
2022-10-07T02:34:27.275Z,0.00
2022-10-07T02:35:25.663Z,0.00
2022-10-07T02:36:25.975Z,0.00
2022-10-07T02:37:26.262Z,0.00
2022-10-07T02:38:27.586Z,0.00
2022-10-07T02:39:28.821Z,0.00
2022-10-07T02:40:27.091Z,0.00
2022-10-07T02:41:27.393Z,0.00
2022-10-07T02:42:29.574Z,0.00
2022-10-07T02:43:29.154Z,0.00
2022-10-07T02:44:28.279Z,0.00
2022-10-07T02:45:28.575Z,0.00
2022-10-07T02:46:30.805Z,0.00
2022-10-07T02:47:29.166Z,0.00
2022-10-07T02:48:30.375Z,0.00
2022-10-07T02:49:31.736Z,0.00
2022-10-07T02:50:30.006Z,0.00
2022-10-07T02:51:32.180Z,0.00
2022-10-07T02:52:32.360Z,0.00
2022-10-07T02:53:33.548Z,0.00
2022-10-07T02:54:31.203Z,0.00
2022-10-07T02:55:31.492Z,0.00
2022-10-07T02:56:31.808Z,0.00
2022-10-07T02:57:33.994Z,0.00
2022-10-07T02:58:36.064Z,0.00
2022-10-07T02:59:32.714Z,0.00
2022-10-07T03:00:34.909Z,0.00
2022-10-07T03:01:33.370Z,0.00
2022-10-07T03:02:35.469Z,0.00
2022-10-07T03:03:34.918Z,0.00
2022-10-07T03:04:36.098Z,0.00
2022-10-07T03:05:35.397Z,0.00
2022-10-07T03:06:36.676Z,0.00
2022-10-07T03:07:36.868Z,0.00
2022-10-07T03:08:38.073Z,0.00
2022-10-07T03:09:37.351Z,0.00
2022-10-07T03:10:37.522Z,0.00
2022-10-07T03:11:36.140Z,0.00
2022-10-07T03:12:38.331Z,0.00
2022-10-07T03:13:39.527Z,0.00
2022-10-07T03:14:38.771Z,0.00
2022-10-07T03:15:42.331Z,0.00
2022-10-07T03:16:39.155Z,0.00
2022-10-07T03:17:39.335Z,0.00
2022-10-07T03:18:41.517Z,0.00
2022-10-07T03:19:38.430Z,0.00
2022-10-07T03:20:38.758Z,0.00
2022-10-07T03:21:39.071Z,0.00
2022-10-07T03:22:39.389Z,0.00
2022-10-07T03:23:42.552Z,0.00
2022-10-07T03:24:39.963Z,0.00
2022-10-07T03:25:40.266Z,0.00
2022-10-07T03:26:40.581Z,0.00
2022-10-07T03:27:43.188Z,0.00
2022-10-07T03:28:43.256Z,0.00
2022-10-07T03:29:42.428Z,0.00
2022-10-07T03:30:43.635Z,0.00
2022-10-07T03:31:42.194Z,0.00
2022-10-07T03:32:44.334Z,0.00
2022-10-07T03:33:45.624Z,0.00
2022-10-07T03:34:43.020Z,0.00
2022-10-07T03:35:45.248Z,0.00
2022-10-07T03:36:43.626Z,0.00
2022-10-07T03:37:44.075Z,0.00
2022-10-07T03:38:47.078Z,0.00
2022-10-07T03:39:44.486Z,0.00
2022-10-07T03:40:44.794Z,0.00
2022-10-07T03:41:47.937Z,0.00
2022-10-07T03:42:45.360Z,0.00
2022-10-07T03:43:47.649Z,0.00
2022-10-07T03:44:47.727Z,0.00
2022-10-07T03:45:46.242Z,0.00
2022-10-07T03:46:48.466Z,0.00
2022-10-07T03:47:48.612Z,0.00
2022-10-07T03:48:48.908Z,0.00
2022-10-07T03:49:49.079Z,0.00
2022-10-07T03:50:47.749Z,0.00
2022-10-07T03:51:50.852Z,0.00
2022-10-07T03:52:48.264Z,0.00
2022-10-07T03:53:50.423Z,0.00
2022-10-07T03:54:50.607Z,0.00
2022-10-07T03:55:49.112Z,0.00
2022-10-07T03:56:49.414Z,0.00
2022-10-07T03:57:49.727Z,0.00
2022-10-07T03:58:50.071Z,0.00
2022-10-07T03:59:52.204Z,0.00
2022-10-07T04:00:50.598Z,0.00
2022-10-07T04:01:53.384Z,0.00
2022-10-07T04:02:51.332Z,0.00
2022-10-07T04:03:51.483Z,0.00
2022-10-07T04:04:53.669Z,0.00
2022-10-07T04:05:52.046Z,0.00
2022-10-07T04:06:52.361Z,0.00
2022-10-07T04:07:52.691Z,0.00
2022-10-07T04:08:54.896Z,0.00
2022-10-07T04:09:55.140Z,0.00
2022-10-07T04:10:54.321Z,0.00
2022-10-07T04:11:55.270Z,0.00
2022-10-07T04:12:54.132Z,0.00
2022-10-07T04:13:56.321Z,0.00
2022-10-07T04:14:56.503Z,0.00
2022-10-07T04:15:55.052Z,0.00
2022-10-07T04:16:55.350Z,0.00
2022-10-07T04:17:58.983Z,0.00
2022-10-07T04:18:58.722Z,0.00
2022-10-07T04:19:57.934Z,0.00
2022-10-07T04:20:56.557Z,0.00
2022-10-07T04:21:56.869Z,0.00
2022-10-07T04:22:57.161Z,0.00
2022-10-07T04:23:59.322Z,0.00
2022-10-07T04:24:59.508Z,0.00
2022-10-07T04:25:58.148Z,0.00
2022-10-07T04:26:58.447Z,0.00
2022-10-07T04:27:58.850Z,0.00
2022-10-07T04:29:00.927Z,0.00
2022-10-07T04:29:59.507Z,0.00
2022-10-07T04:31:02.488Z,0.00
2022-10-07T04:31:59.859Z,0.00
2022-10-07T04:33:00.158Z,0.00
2022-10-07T04:34:02.476Z,0.00
2022-10-07T04:35:02.533Z,0.00
2022-10-07T04:36:02.710Z,0.00
2022-10-07T04:37:02.253Z,0.00
2022-10-07T04:38:02.510Z,0.00
2022-10-07T04:39:01.882Z,0.00
2022-10-07T04:40:02.206Z,0.00
2022-10-07T04:41:04.396Z,0.00
2022-10-07T04:42:03.821Z,0.00
2022-10-07T04:43:04.050Z,0.00
2022-10-07T04:44:06.245Z,0.00
2022-10-07T04:45:03.826Z,0.00
2022-10-07T04:46:03.995Z,0.00
2022-10-07T04:47:05.208Z,0.00
2022-10-07T04:48:05.593Z,0.00
2022-10-07T04:49:06.831Z,0.00
2022-10-07T04:50:05.092Z,0.00
2022-10-07T04:51:06.324Z,0.00
2022-10-07T04:52:07.447Z,0.00
2022-10-07T04:53:06.926Z,0.00
2022-10-07T04:54:08.160Z,0.00
2022-10-07T04:55:08.344Z,0.00
2022-10-07T04:56:06.977Z,0.00
2022-10-07T04:57:08.013Z,0.00
2022-10-07T04:58:08.335Z,0.00
2022-10-07T04:59:09.565Z,4.00
2022-10-07T05:00:09.742Z,4.00
2022-10-07T05:01:08.353Z,0.00
2022-10-07T05:02:08.635Z,4.00
2022-10-07T05:03:12.206Z,4.00
2022-10-07T05:04:09.093Z,4.00
2022-10-07T05:05:10.298Z,4.00
2022-10-07T05:06:11.443Z,4.00
2022-10-07T05:07:09.946Z,4.00
2022-10-07T05:08:13.607Z,8.00
2022-10-07T05:09:12.342Z,8.00
2022-10-07T05:10:12.526Z,12.00
2022-10-07T05:11:12.725Z,12.00
2022-10-07T05:12:13.384Z,16.00
2022-10-07T05:13:15.139Z,20.00
2022-10-07T05:14:13.838Z,20.00
2022-10-07T05:15:14.028Z,24.00
2022-10-07T05:16:13.654Z,32.00
2022-10-07T05:17:13.944Z,36.00
2022-10-07T05:18:14.329Z,44.00
2022-10-07T05:19:15.566Z,48.00
2022-10-07T05:20:14.760Z,60.00
2022-10-07T05:21:14.916Z,68.00
2022-10-07T05:22:14.421Z,80.00
2022-10-07T05:23:15.741Z,96.00
2022-10-07T05:24:18.390Z,108.00
2022-10-07T05:25:17.130Z,124.00
2022-10-07T05:26:15.660Z,140.00
2022-10-07T05:27:16.003Z,160.00
2022-10-07T05:28:17.383Z,184.00
2022-10-07T05:29:18.547Z,204.00
2022-10-07T05:30:16.937Z,232.00
2022-10-07T05:31:17.322Z,260.00
2022-10-07T05:32:17.504Z,292.00
2022-10-07T05:33:17.862Z,324.00
2022-10-07T05:34:20.043Z,356.00
2022-10-07T05:35:20.257Z,396.00
2022-10-07T05:36:18.654Z,436.00
2022-10-07T05:37:18.992Z,476.00
2022-10-07T05:38:19.309Z,520.00
2022-10-07T05:39:22.494Z,564.00
2022-10-07T05:40:20.774Z,612.00
2022-10-07T05:41:22.100Z,664.00
2022-10-07T05:42:22.261Z,716.00
2022-10-07T05:43:22.446Z,768.00
2022-10-07T05:44:23.661Z,824.00
2022-10-07T05:45:21.419Z,888.00
2022-10-07T05:46:21.865Z,944.00
2022-10-07T05:47:22.041Z,1012.00
2022-10-07T05:48:24.209Z,1072.00
2022-10-07T05:49:23.491Z,1140.00
2022-10-07T05:50:24.838Z,1204.00
2022-10-07T05:51:25.134Z,1272.00
2022-10-07T05:52:23.423Z,1340.00
2022-10-07T05:53:25.605Z,1408.00
2022-10-07T05:54:25.063Z,1484.00
2022-10-07T05:55:24.354Z,1556.00
2022-10-07T05:56:24.690Z,1632.00
2022-10-07T05:57:28.338Z,1708.00
2022-10-07T05:58:27.064Z,1784.00
2022-10-07T05:59:26.454Z,1860.00
2022-10-07T06:00:25.727Z,1940.00
2022-10-07T06:01:26.080Z,2016.00
2022-10-07T06:02:26.368Z,2092.00
2022-10-07T06:03:28.534Z,2168.00
2022-10-07T06:04:27.943Z,2232.00
2022-10-07T06:05:27.212Z,2300.00
2022-10-07T06:06:27.436Z,2372.00
2022-10-07T06:07:29.477Z,2436.00
2022-10-07T06:08:31.436Z,2492.00
2022-10-07T06:09:29.345Z,2568.00
2022-10-07T06:10:28.644Z,2636.00
2022-10-07T06:11:28.953Z,2696.00
2022-10-07T06:12:32.106Z,2756.00
2022-10-07T06:13:32.279Z,2816.00
2022-10-07T06:14:31.568Z,2880.00
2022-10-07T06:15:31.751Z,2948.00
2022-10-07T06:16:31.483Z,3012.00
2022-10-07T06:17:30.773Z,3072.00
2022-10-07T06:18:32.912Z,3140.00
2022-10-07T06:19:32.699Z,3200.00
2022-10-07T06:20:31.477Z,3264.00
2022-10-07T06:21:31.707Z,3328.00
2022-10-07T06:22:32.038Z,3396.00
2022-10-07T06:23:34.343Z,3460.00
2022-10-07T06:24:35.408Z,3528.00
2022-10-07T06:25:32.979Z,3596.00
2022-10-07T06:26:36.593Z,3680.00
2022-10-07T06:27:33.518Z,3756.00
2022-10-07T06:28:34.625Z,3840.00
2022-10-07T06:29:36.930Z,3912.00
2022-10-07T06:30:36.397Z,3984.00
2022-10-07T06:31:35.337Z,4060.00
2022-10-07T06:32:35.749Z,4136.00
2022-10-07T06:33:36.124Z,4204.00
2022-10-07T06:34:37.375Z,4268.00
2022-10-07T06:35:37.529Z,4316.00
2022-10-07T06:36:36.903Z,4400.00
2022-10-07T06:37:37.095Z,4476.00
2022-10-07T06:38:36.515Z,4544.00
2022-10-07T06:39:40.189Z,4612.00
2022-10-07T06:40:38.053Z,4660.00
2022-10-07T06:41:37.478Z,4708.00
2022-10-07T06:42:39.651Z,4788.00
2022-10-07T06:43:38.065Z,4876.00
2022-10-07T06:44:39.382Z,4956.00
2022-10-07T06:45:38.676Z,5028.00
2022-10-07T06:46:41.301Z,5068.00
2022-10-07T06:47:40.029Z,5140.00
2022-10-07T06:48:41.219Z,5196.00
2022-10-07T06:49:41.478Z,5280.00
2022-10-07T06:50:41.662Z,5348.00
2022-10-07T06:51:40.449Z,5396.00
2022-10-07T06:52:43.419Z,5464.00
2022-10-07T06:53:40.909Z,5528.00
2022-10-07T06:54:42.224Z,5604.00
2022-10-07T06:55:41.494Z,5656.00
2022-10-07T06:56:43.688Z,5724.00
2022-10-07T06:57:46.569Z,5876.00
2022-10-07T06:58:42.359Z,6080.00
2022-10-07T06:59:45.554Z,6304.00
2022-10-07T07:00:42.837Z,6820.00
2022-10-07T07:01:45.055Z,7708.00
2022-10-07T07:02:43.532Z,8356.00
2022-10-07T07:03:43.764Z,8516.00
2022-10-07T07:04:46.973Z,8800.00
2022-10-07T07:05:45.802Z,8868.00
2022-10-07T07:06:44.529Z,9064.00
2022-10-07T07:07:46.992Z,9008.00
2022-10-07T07:08:46.181Z,9104.00
2022-10-07T07:09:48.815Z,9176.00
2022-10-07T07:10:45.764Z,9228.00
2022-10-07T07:11:48.298Z,9296.00
2022-10-07T07:12:48.522Z,9280.00
2022-10-07T07:13:46.693Z,9208.00
2022-10-07T07:14:50.362Z,9168.00
2022-10-07T07:15:49.083Z,9200.00
2022-10-07T07:16:49.342Z,9104.00
2022-10-07T07:17:48.506Z,9044.00
2022-10-07T07:18:49.177Z,9028.00
2022-10-07T07:19:50.466Z,9024.00
2022-10-07T07:20:50.601Z,9028.00
2022-10-07T07:21:51.212Z,8912.00
2022-10-07T07:22:49.335Z,8672.00
2022-10-07T07:23:51.207Z,8568.00
2022-10-07T07:24:49.995Z,8084.00
2022-10-07T07:25:53.618Z,7884.00
2022-10-07T07:26:50.575Z,7700.00
2022-10-07T07:27:56.751Z,8848.00
2022-10-07T07:28:55.207Z,8848.00
2022-10-07T07:29:53.309Z,8924.00
2022-10-07T07:30:53.508Z,9076.00
2022-10-07T07:31:53.958Z,9216.00
2022-10-07T07:32:54.368Z,9752.00
2022-10-07T07:33:55.571Z,9420.00
2022-10-07T07:34:54.787Z,9552.00
2022-10-07T07:35:54.957Z,9524.00
2022-10-07T07:36:54.098Z,9668.00
2022-10-07T07:37:53.885Z,9892.00
2022-10-07T07:38:55.202Z,9868.00
2022-10-07T07:39:56.426Z,11244.00
2022-10-07T07:40:54.736Z,14604.00
2022-10-07T07:41:54.966Z,12312.00
2022-10-07T07:42:55.441Z,12136.00
2022-10-07T07:43:58.849Z,13500.00
2022-10-07T07:44:57.757Z,11092.00
2022-10-07T07:45:56.098Z,11748.00
2022-10-07T07:46:57.281Z,13416.00
2022-10-07T07:47:57.476Z,14924.00
2022-10-07T07:49:00.301Z,14584.00
2022-10-07T07:49:59.049Z,15864.00
2022-10-07T07:50:59.191Z,19488.00
2022-10-07T07:51:58.562Z,17824.00
2022-10-07T07:52:57.901Z,17376.00
2022-10-07T07:53:58.359Z,16376.00
2022-10-07T07:55:00.368Z,12212.00
2022-10-07T07:55:59.666Z,11356.00
2022-10-07T07:56:58.923Z,9140.00
2022-10-07T07:57:59.150Z,9888.00
2022-10-07T07:59:02.792Z,13964.00
2022-10-07T07:59:59.741Z,10332.00
2022-10-07T08:01:00.125Z,10900.00
2022-10-07T08:02:01.338Z,11148.00
2022-10-07T08:03:00.621Z,16096.00
2022-10-07T08:04:02.810Z,11440.00
2022-10-07T08:05:01.112Z,14496.00
2022-10-07T08:06:01.348Z,13544.00
2022-10-07T08:07:03.513Z,12324.00
2022-10-07T08:08:01.922Z,13180.00
2022-10-07T08:09:04.131Z,12552.00
2022-10-07T08:10:02.763Z,15276.00
2022-10-07T08:11:02.824Z,10412.00
2022-10-07T08:12:05.934Z,10128.00
2022-10-07T08:13:03.374Z,18784.00
2022-10-07T08:14:05.544Z,13652.00
2022-10-07T08:15:04.015Z,12372.00
2022-10-07T08:16:04.157Z,17312.00
2022-10-07T08:17:04.374Z,20512.00
2022-10-07T08:18:04.583Z,20800.00
2022-10-07T08:19:06.775Z,11652.00
2022-10-07T08:20:05.183Z,22848.00
2022-10-07T08:21:05.545Z,24512.00
2022-10-07T08:22:06.764Z,26336.00
2022-10-07T08:23:07.933Z,26752.00
2022-10-07T08:24:08.115Z,14304.00
2022-10-07T08:25:06.662Z,26528.00
2022-10-07T08:26:06.912Z,25504.00
2022-10-07T08:27:07.138Z,23456.00
2022-10-07T08:28:07.413Z,24928.00
2022-10-07T08:29:10.520Z,14828.00
2022-10-07T08:30:07.959Z,27264.00
2022-10-07T08:31:10.193Z,20224.00
2022-10-07T08:32:10.909Z,12208.00
2022-10-07T08:33:10.625Z,26304.00
2022-10-07T08:34:11.749Z,14152.00
2022-10-07T08:35:10.938Z,11868.00
2022-10-07T08:36:11.616Z,15360.00
2022-10-07T08:37:10.949Z,24000.00
2022-10-07T08:38:14.370Z,26944.00
2022-10-07T08:39:12.569Z,29056.00
2022-10-07T08:40:11.784Z,29408.00
2022-10-07T08:41:13.089Z,29088.00
2022-10-07T08:42:11.394Z,30016.00
2022-10-07T08:43:11.681Z,25600.00
2022-10-07T08:44:16.407Z,25664.00
2022-10-07T08:45:12.251Z,22912.00
2022-10-07T08:46:13.490Z,24224.00
2022-10-07T08:47:13.573Z,29600.00
2022-10-07T08:48:13.992Z,30560.00
2022-10-07T08:49:15.237Z,31424.00
2022-10-07T08:50:19.487Z,30752.00
2022-10-07T08:51:14.735Z,31072.00
2022-10-07T08:52:15.104Z,29408.00
2022-10-07T08:53:17.812Z,29664.00
2022-10-07T08:54:17.522Z,28800.00
2022-10-07T08:55:17.690Z,29440.00
2022-10-07T08:56:16.878Z,32096.00
2022-10-07T08:57:15.445Z,32992.00
2022-10-07T08:58:16.698Z,33184.00
2022-10-07T08:59:16.002Z,31744.00
2022-10-07T09:00:16.246Z,30464.00
2022-10-07T09:01:17.500Z,31008.00
2022-10-07T09:02:18.635Z,29472.00
2022-10-07T09:03:24.781Z,28672.00
2022-10-07T09:04:18.404Z,29376.00
2022-10-07T09:05:20.556Z,30880.00
2022-10-07T09:06:19.763Z,32192.00
2022-10-07T09:07:19.951Z,33664.00
2022-10-07T09:08:21.114Z,35712.00
2022-10-07T09:09:20.825Z,14184.00
2022-10-07T09:10:20.085Z,34848.00
2022-10-07T09:11:19.705Z,33664.00
2022-10-07T09:12:19.911Z,32224.00
2022-10-07T09:13:21.138Z,33536.00
2022-10-07T09:14:22.377Z,38176.00
2022-10-07T09:15:22.561Z,32800.00
2022-10-07T09:16:22.742Z,38880.00
2022-10-07T09:17:21.329Z,11924.00
2022-10-07T09:18:24.468Z,39584.00
2022-10-07T09:19:21.793Z,39456.00
2022-10-07T09:20:23.973Z,40160.00
2022-10-07T09:21:24.170Z,39968.00
2022-10-07T09:22:24.547Z,42464.00
2022-10-07T09:23:23.684Z,43072.00
2022-10-07T09:24:23.105Z,41408.00
2022-10-07T09:25:25.309Z,41568.00
2022-10-07T09:26:23.612Z,41824.00
2022-10-07T09:27:25.813Z,39936.00
2022-10-07T09:28:24.268Z,40960.00
2022-10-07T09:29:26.448Z,42912.00
2022-10-07T09:30:26.618Z,46240.00
2022-10-07T09:31:26.842Z,41856.00
2022-10-07T09:32:25.372Z,52960.00
2022-10-07T09:33:26.572Z,24096.00
2022-10-07T09:34:25.883Z,18368.00
2022-10-07T09:35:28.066Z,44064.00
2022-10-07T09:36:26.366Z,19840.00
2022-10-07T09:37:26.599Z,35040.00
2022-10-07T09:38:27.793Z,41664.00
2022-10-07T09:39:27.093Z,39040.00
2022-10-07T09:40:27.339Z,40192.00
2022-10-07T09:41:31.260Z,41856.00
2022-10-07T09:42:27.882Z,24256.00
2022-10-07T09:43:28.933Z,18784.00
2022-10-07T09:44:30.306Z,42944.00
2022-10-07T09:45:28.604Z,43136.00
2022-10-07T09:46:28.918Z,44320.00
2022-10-07T09:47:29.138Z,45600.00
2022-10-07T09:48:32.765Z,44672.00
2022-10-07T09:49:32.980Z,28992.00
2022-10-07T09:50:29.934Z,46464.00
2022-10-07T09:51:30.178Z,46592.00
2022-10-07T09:52:30.401Z,45856.00
2022-10-07T09:53:32.673Z,49056.00
2022-10-07T09:54:30.940Z,18784.00
2022-10-07T09:55:34.587Z,48928.00
2022-10-07T09:56:31.401Z,48768.00
2022-10-07T09:57:31.632Z,47712.00
2022-10-07T09:58:31.934Z,49504.00
2022-10-07T09:59:34.105Z,48000.00
2022-10-07T10:00:32.434Z,49920.00
2022-10-07T10:01:34.628Z,49152.00
2022-10-07T10:02:34.917Z,49792.00
2022-10-07T10:03:34.281Z,51616.00
2022-10-07T10:04:35.374Z,49088.00
2022-10-07T10:05:33.803Z,48672.00
2022-10-07T10:06:34.254Z,52256.00
2022-10-07T10:07:36.248Z,56384.00
2022-10-07T10:08:35.593Z,26272.00
2022-10-07T10:09:34.921Z,38240.00
2022-10-07T10:10:35.113Z,47424.00
2022-10-07T10:11:35.529Z,46176.00
2022-10-07T10:12:39.413Z,47296.00
2022-10-07T10:13:36.821Z,48256.00
2022-10-07T10:14:36.139Z,50656.00
2022-10-07T10:15:36.407Z,52096.00
2022-10-07T10:16:36.641Z,20576.00
2022-10-07T10:17:38.832Z,47520.00
2022-10-07T10:18:38.172Z,35264.00
2022-10-07T10:19:39.370Z,51264.00
2022-10-07T10:20:37.781Z,51200.00
2022-10-07T10:21:38.009Z,53952.00
2022-10-07T10:22:40.193Z,17852.00
2022-10-07T10:23:41.882Z,47552.00
2022-10-07T10:24:38.715Z,50528.00
2022-10-07T10:25:40.903Z,52128.00
2022-10-07T10:26:39.209Z,53408.00
2022-10-07T10:27:41.417Z,54624.00
2022-10-07T10:28:43.128Z,26304.00
2022-10-07T10:29:39.968Z,60160.00
2022-10-07T10:30:42.149Z,60256.00
2022-10-07T10:31:42.332Z,53728.00
2022-10-07T10:32:40.775Z,54976.00
2022-10-07T10:33:44.467Z,62560.00
2022-10-07T10:34:41.291Z,52928.00
2022-10-07T10:35:41.649Z,55488.00
2022-10-07T10:36:43.824Z,56480.00
2022-10-07T10:37:42.950Z,39040.00
2022-10-07T10:38:45.842Z,53984.00
2022-10-07T10:39:43.530Z,55040.00
2022-10-07T10:40:42.932Z,26432.00
2022-10-07T10:41:45.128Z,58400.00
2022-10-07T10:42:43.767Z,43104.00
2022-10-07T10:43:44.790Z,54944.00
2022-10-07T10:44:45.131Z,55424.00
2022-10-07T10:45:44.383Z,56640.00
2022-10-07T10:46:47.399Z,56160.00
2022-10-07T10:47:46.853Z,19264.00
2022-10-07T10:48:48.519Z,53408.00
2022-10-07T10:49:45.488Z,55072.00
2022-10-07T10:50:49.097Z,41280.00
2022-10-07T10:51:46.981Z,51168.00
2022-10-07T10:52:47.530Z,50336.00
2022-10-07T10:53:47.593Z,37632.00
2022-10-07T10:54:48.840Z,51392.00
2022-10-07T10:55:47.299Z,50560.00
2022-10-07T10:56:48.307Z,31424.00
2022-10-07T10:57:49.573Z,56384.00
2022-10-07T10:58:50.730Z,38048.00
2022-10-07T10:59:48.293Z,16784.00
2022-10-07T11:00:48.539Z,47840.00
2022-10-07T11:01:48.834Z,43360.00
2022-10-07T11:02:51.034Z,47456.00
2022-10-07T11:03:51.242Z,51008.00
2022-10-07T11:04:49.600Z,54400.00
2022-10-07T11:05:50.734Z,57120.00
2022-10-07T11:06:51.969Z,44416.00
2022-10-07T11:07:51.085Z,17376.00
2022-10-07T11:08:53.457Z,57344.00
2022-10-07T11:09:52.681Z,59616.00
2022-10-07T11:10:52.877Z,63328.00
2022-10-07T11:11:51.334Z,59008.00
2022-10-07T11:12:51.575Z,47776.00
2022-10-07T11:13:53.347Z,56544.00
2022-10-07T11:14:57.593Z,37792.00
2022-10-07T11:15:52.502Z,58400.00
2022-10-07T11:16:52.815Z,54912.00
2022-10-07T11:17:53.832Z,51424.00
2022-10-07T11:18:57.036Z,55584.00
2022-10-07T11:19:53.633Z,21184.00
2022-10-07T11:20:53.964Z,15080.00
2022-10-07T11:21:56.043Z,60640.00
2022-10-07T11:22:54.478Z,61376.00
2022-10-07T11:23:55.701Z,62432.00
2022-10-07T11:24:56.932Z,58016.00
2022-10-07T11:25:57.108Z,57408.00
2022-10-07T11:26:57.266Z,44192.00
2022-10-07T11:27:57.436Z,47232.00
2022-10-07T11:28:59.590Z,54848.00
2022-10-07T11:29:58.297Z,57216.00
2022-10-07T11:30:58.563Z,23584.00
2022-10-07T11:31:58.657Z,51392.00
2022-10-07T11:32:59.323Z,52512.00
2022-10-07T11:34:00.942Z,54784.00
2022-10-07T11:35:01.162Z,57600.00
2022-10-07T11:35:58.899Z,27136.00
2022-10-07T11:37:00.582Z,42496.00
2022-10-07T11:38:00.775Z,66432.00
2022-10-07T11:39:02.417Z,64800.00
2022-10-07T11:39:59.490Z,57760.00
2022-10-07T11:41:01.760Z,29664.00
2022-10-07T11:42:00.053Z,60544.00
2022-10-07T11:43:02.240Z,61408.00
2022-10-07T11:44:02.429Z,37504.00
2022-10-07T11:45:00.879Z,21856.00
2022-10-07T11:46:04.253Z,25536.00
2022-10-07T11:47:01.380Z,62400.00
2022-10-07T11:48:01.574Z,18784.00
2022-10-07T11:49:01.821Z,63680.00
2022-10-07T11:50:02.066Z,60064.00
2022-10-07T11:51:03.745Z,59488.00
2022-10-07T11:52:02.654Z,56928.00
2022-10-07T11:53:02.897Z,54176.00
2022-10-07T11:54:05.100Z,57056.00
2022-10-07T11:55:03.411Z,24160.00
2022-10-07T11:56:03.657Z,26144.00
2022-10-07T11:57:05.856Z,57376.00
2022-10-07T11:58:04.167Z,57056.00
2022-10-07T11:59:06.447Z,26560.00
2022-10-07T12:00:06.575Z,56512.00
2022-10-07T12:01:06.747Z,57152.00
2022-10-07T12:02:05.244Z,59296.00
2022-10-07T12:03:05.488Z,54176.00
2022-10-07T12:04:09.159Z,59040.00
2022-10-07T12:05:05.968Z,59040.00
2022-10-07T12:06:06.211Z,60640.00
2022-10-07T12:07:06.445Z,16072.00
2022-10-07T12:08:06.712Z,23968.00
2022-10-07T12:09:10.350Z,24352.00
2022-10-07T12:10:09.098Z,29728.00
2022-10-07T12:11:07.516Z,59712.00
2022-10-07T12:12:07.639Z,67744.00
2022-10-07T12:13:09.817Z,53280.00
2022-10-07T12:14:09.061Z,62272.00
2022-10-07T12:15:08.364Z,48832.00
2022-10-07T12:16:08.640Z,63872.00
2022-10-07T12:17:08.855Z,65920.00
2022-10-07T12:18:11.028Z,58560.00
2022-10-07T12:19:10.392Z,57536.00
2022-10-07T12:20:09.682Z,39424.00
2022-10-07T12:21:09.927Z,30080.00
2022-10-07T12:22:12.108Z,57120.00
2022-10-07T12:23:10.414Z,52000.00
2022-10-07T12:24:13.056Z,57472.00
2022-10-07T12:25:11.351Z,45184.00
2022-10-07T12:26:11.252Z,57664.00
2022-10-07T12:27:13.435Z,39776.00
2022-10-07T12:28:11.792Z,43744.00
2022-10-07T12:29:12.997Z,53280.00
2022-10-07T12:30:12.315Z,42880.00